createdAt,value
2023-04-26T00:02:14.852Z,4.49
2023-04-26T00:04:41.553Z,4.47
2023-04-26T00:07:07.956Z,4.43
2023-04-26T00:09:34.247Z,4.37
2023-04-26T00:12:00.726Z,4.37
2023-04-26T00:14:27.115Z,4.38
2023-04-26T00:16:53.565Z,4.40
2023-04-26T00:19:19.907Z,4.38
2023-04-26T00:21:46.255Z,4.37
2023-04-26T00:24:12.595Z,4.33
2023-04-26T00:26:38.901Z,4.28
2023-04-26T00:29:05.232Z,4.25
2023-04-26T00:31:31.561Z,4.28
2023-04-26T00:33:57.979Z,4.29
2023-04-26T00:36:24.348Z,4.31
2023-04-26T00:38:50.994Z,4.25
2023-04-26T00:41:17.531Z,4.25
2023-04-26T00:43:44.047Z,4.15
2023-04-26T00:46:10.777Z,4.22
2023-04-26T00:48:37.411Z,4.20
2023-04-26T00:51:05.488Z,4.16
2023-04-26T00:53:32.467Z,4.12
2023-04-26T00:55:59.492Z,4.15
2023-04-26T00:58:26.112Z,4.14
2023-04-26T01:00:52.488Z,4.05
2023-04-26T01:03:19.655Z,4.01
2023-04-26T01:05:46.373Z,4.11
2023-04-26T01:08:12.855Z,4.07
2023-04-26T01:10:40.058Z,4.08
2023-04-26T01:13:06.349Z,4.02
2023-04-26T01:15:32.755Z,3.95
2023-04-26T01:17:59.650Z,3.96
2023-04-26T01:20:26.042Z,3.90
2023-04-26T01:22:52.388Z,3.92
2023-04-26T01:25:18.885Z,3.85
2023-04-26T01:27:45.187Z,3.79
2023-04-26T01:30:11.752Z,3.81
2023-04-26T01:32:38.425Z,3.80
2023-04-26T01:35:05.067Z,3.79
2023-04-26T01:37:31.373Z,3.79
2023-04-26T01:39:57.688Z,3.76
2023-04-26T01:42:24.013Z,3.77
2023-04-26T01:44:50.316Z,3.71
2023-04-26T01:47:16.777Z,3.72
2023-04-26T01:49:43.176Z,3.68
2023-04-26T01:52:09.481Z,3.70
2023-04-26T01:54:35.812Z,3.65
2023-04-26T01:57:02.114Z,3.61
2023-04-26T01:59:28.468Z,3.64
2023-04-26T02:01:54.782Z,3.61
2023-04-26T02:04:21.123Z,3.62
2023-04-26T02:06:47.434Z,3.55
2023-04-26T02:09:13.757Z,3.59
2023-04-26T02:11:40.425Z,3.45
2023-04-26T02:14:06.941Z,3.57
2023-04-26T02:16:33.308Z,3.46
2023-04-26T02:18:59.640Z,3.49
2023-04-26T02:21:26.379Z,3.47
2023-04-26T02:23:52.901Z,3.44
2023-04-26T02:26:19.231Z,3.44
2023-04-26T02:28:45.518Z,3.44
2023-04-26T02:31:11.869Z,3.40
2023-04-26T02:33:38.168Z,3.45
2023-04-26T02:36:05.286Z,3.34
2023-04-26T02:38:34.927Z,3.30
2023-04-26T02:41:02.808Z,3.32
2023-04-26T02:43:29.645Z,3.27
2023-04-26T02:45:55.931Z,3.30
2023-04-26T02:48:22.247Z,3.25
2023-04-26T02:50:48.584Z,3.20
2023-04-26T02:53:14.868Z,3.25
2023-04-26T02:55:41.198Z,3.15
2023-04-26T02:58:07.540Z,3.13
2023-04-26T03:00:34.010Z,3.17
2023-04-26T03:03:00.582Z,3.17
2023-04-26T03:05:27.131Z,3.14
2023-04-26T03:07:53.410Z,3.06
2023-04-26T03:10:19.706Z,3.08
2023-04-26T03:12:46.051Z,3.04
2023-04-26T03:15:12.372Z,3.08
2023-04-26T03:17:38.684Z,3.10
2023-04-26T03:20:05.646Z,3.03
2023-04-26T03:22:31.985Z,2.96
2023-04-26T03:24:58.312Z,2.99
2023-04-26T03:27:24.714Z,3.04
2023-04-26T03:29:51.058Z,3.02
2023-04-26T03:32:17.567Z,2.99
2023-04-26T03:34:44.130Z,3.04
2023-04-26T03:37:10.474Z,3.01
2023-04-26T03:39:36.795Z,3.00
2023-04-26T03:42:03.201Z,2.96
2023-04-26T03:44:31.175Z,2.92
2023-04-26T03:46:57.681Z,2.90
2023-04-26T03:49:23.984Z,2.96
2023-04-26T03:51:50.324Z,2.96
2023-04-26T03:54:16.688Z,2.97
2023-04-26T03:56:43.041Z,2.99
2023-04-26T03:59:09.328Z,2.92
2023-04-26T04:01:35.657Z,2.91
2023-04-26T04:04:02.462Z,2.94
2023-04-26T04:06:28.929Z,2.94
2023-04-26T04:08:55.414Z,3.00
2023-04-26T04:11:21.948Z,3.04
2023-04-26T04:13:48.442Z,2.99
2023-04-26T04:16:14.813Z,2.94
2023-04-26T04:18:41.257Z,2.92
2023-04-26T04:21:07.558Z,2.91
2023-04-26T04:23:33.861Z,2.91
2023-04-26T04:26:00.196Z,3.00
2023-04-26T04:28:26.498Z,2.99
2023-04-26T04:30:52.834Z,3.03
2023-04-26T04:33:19.170Z,3.01
2023-04-26T04:35:45.627Z,3.01
2023-04-26T04:38:14.786Z,3.04
2023-04-26T04:40:41.156Z,3.11
2023-04-26T04:43:07.466Z,3.08
2023-04-26T04:45:33.795Z,3.12
2023-04-26T04:48:00.165Z,3.13
2023-04-26T04:50:26.723Z,3.12
2023-04-26T04:52:53.012Z,3.14
2023-04-26T04:55:19.504Z,3.23
2023-04-26T04:57:45.820Z,3.30
2023-04-26T05:00:12.731Z,3.32
2023-04-26T05:02:39.154Z,3.38
2023-04-26T05:05:06.081Z,3.34
2023-04-26T05:07:32.624Z,3.39
2023-04-26T05:09:59.255Z,3.46
2023-04-26T05:12:25.855Z,3.53
2023-04-26T05:14:52.214Z,3.57
2023-04-26T05:17:18.596Z,3.60
2023-04-26T05:19:44.914Z,3.64
2023-04-26T05:22:11.904Z,3.69
2023-04-26T05:24:38.181Z,3.80
2023-04-26T05:27:04.754Z,3.79
2023-04-26T05:29:31.214Z,3.81
2023-04-26T05:31:57.677Z,3.81
2023-04-26T05:34:24.127Z,3.82
2023-04-26T05:36:50.433Z,3.88
2023-04-26T05:39:17.184Z,3.93
2023-04-26T05:41:43.477Z,4.01
2023-04-26T05:44:09.885Z,4.11
2023-04-26T05:46:36.200Z,4.14
2023-04-26T05:49:02.517Z,4.25
2023-04-26T05:51:28.921Z,4.16
2023-04-26T05:53:55.352Z,4.29
2023-04-26T05:56:21.712Z,4.29
2023-04-26T05:58:47.995Z,4.32
2023-04-26T06:01:14.316Z,4.30
2023-04-26T06:03:40.859Z,4.38
2023-04-26T06:06:07.366Z,4.50
2023-04-26T06:08:34.500Z,4.58
2023-04-26T06:11:00.822Z,4.76
2023-04-26T06:13:27.145Z,4.74
2023-04-26T06:15:53.946Z,4.86
2023-04-26T06:18:20.263Z,4.83
2023-04-26T06:20:46.792Z,4.82
2023-04-26T06:23:13.144Z,4.99
2023-04-26T06:25:39.471Z,5.07
2023-04-26T06:28:05.774Z,5.21
2023-04-26T06:30:32.079Z,5.23
2023-04-26T06:32:58.415Z,5.26
2023-04-26T06:35:24.731Z,5.22
2023-04-26T06:37:51.085Z,5.19
2023-04-26T06:40:17.465Z,5.38
2023-04-26T06:42:43.775Z,5.53
2023-04-26T06:45:10.894Z,5.49
2023-04-26T06:47:37.220Z,5.64
2023-04-26T06:50:04.809Z,5.69
2023-04-26T06:52:31.225Z,5.80
2023-04-26T06:54:57.914Z,5.94
2023-04-26T06:57:24.360Z,6.07
2023-04-26T06:59:50.729Z,6.20
2023-04-26T07:02:17.090Z,6.07
2023-04-26T07:04:43.853Z,6.02
2023-04-26T07:07:12.925Z,6.08
2023-04-26T07:09:39.662Z,6.09
2023-04-26T07:12:06.141Z,6.06
2023-04-26T07:14:32.456Z,6.21
2023-04-26T07:16:58.742Z,6.31
2023-04-26T07:19:25.037Z,6.31
2023-04-26T07:21:51.381Z,6.33
2023-04-26T07:24:17.672Z,6.40
2023-04-26T07:26:43.970Z,6.39
2023-04-26T07:29:10.282Z,6.50
2023-04-26T07:31:36.582Z,6.73
2023-04-26T07:34:02.882Z,6.92
2023-04-26T07:36:29.191Z,7.17
2023-04-26T07:38:55.470Z,7.28
2023-04-26T07:41:21.848Z,7.15
2023-04-26T07:43:48.395Z,6.85
2023-04-26T07:46:14.793Z,7.14
2023-04-26T07:48:41.093Z,6.96
2023-04-26T07:51:11.810Z,6.90
2023-04-26T07:53:39.391Z,7.10
2023-04-26T07:56:06.650Z,7.35
2023-04-26T07:58:33.347Z,7.50
2023-04-26T08:01:00.236Z,7.06
2023-04-26T08:03:26.760Z,7.08
2023-04-26T08:05:53.937Z,7.41
2023-04-26T08:08:23.580Z,7.51
2023-04-26T08:10:49.883Z,7.22
2023-04-26T08:13:16.178Z,7.46
2023-04-26T08:15:42.591Z,7.75
2023-04-26T08:18:08.918Z,7.79
2023-04-26T08:20:35.233Z,7.73
2023-04-26T08:23:01.583Z,7.72
2023-04-26T08:25:28.020Z,7.87
2023-04-26T08:27:54.343Z,8.21
2023-04-26T08:30:20.705Z,8.48
2023-04-26T08:32:47.122Z,8.59
2023-04-26T08:35:13.645Z,8.27
2023-04-26T08:37:40.053Z,8.37
2023-04-26T08:40:07.838Z,8.10
2023-04-26T08:42:40.924Z,8.13
2023-04-26T08:45:08.079Z,8.33
2023-04-26T08:47:39.852Z,8.48
2023-04-26T08:50:08.145Z,8.57
2023-04-26T08:52:35.430Z,8.39
2023-04-26T08:55:02.209Z,8.24
2023-04-26T08:57:31.438Z,8.58
2023-04-26T08:59:58.091Z,8.66
2023-04-26T09:02:25.102Z,8.63
2023-04-26T09:04:51.869Z,8.67
2023-04-26T09:07:26.998Z,8.60
2023-04-26T09:09:55.069Z,8.63
2023-04-26T09:12:21.399Z,8.46
2023-04-26T09:14:48.657Z,8.05
2023-04-26T09:17:30.690Z,8.01
2023-04-26T09:19:58.159Z,7.77
2023-04-26T09:22:31.872Z,7.71
2023-04-26T09:24:58.882Z,7.73
2023-04-26T09:27:39.727Z,7.68
2023-04-26T09:30:24.790Z,7.77
2023-04-26T09:32:59.176Z,8.19
2023-04-26T09:35:27.534Z,8.14
2023-04-26T09:38:00.260Z,7.83
2023-04-26T09:40:29.734Z,7.76
2023-04-26T09:43:16.237Z,7.72
2023-04-26T09:45:56.906Z,8.34
2023-04-26T09:48:30.921Z,8.85
2023-04-26T09:51:04.378Z,9.02
2023-04-26T09:53:47.733Z,9.10
2023-04-26T09:56:19.600Z,8.95
2023-04-26T09:58:59.850Z,8.82
2023-04-26T10:01:28.258Z,8.58
2023-04-26T10:03:56.791Z,8.38
2023-04-26T10:06:23.904Z,8.43
2023-04-26T10:08:50.291Z,8.54
2023-04-26T10:11:18.531Z,8.23
2023-04-26T10:13:44.837Z,8.88
2023-04-26T10:16:11.190Z,8.71
2023-04-26T10:18:37.924Z,8.60
2023-04-26T10:21:22.471Z,8.71
2023-04-26T10:23:49.824Z,8.71
2023-04-26T10:26:47.048Z,8.76
2023-04-26T10:29:13.375Z,8.73
2023-04-26T10:32:01.726Z,8.68
2023-04-26T10:37:14.079Z,9.49
2023-04-26T10:39:45.589Z,9.45
2023-04-26T10:42:28.119Z,9.23
2023-04-26T10:44:59.227Z,9.20
2023-04-26T10:47:32.823Z,9.25
2023-04-26T10:50:10.488Z,9.17
2023-04-26T10:52:58.846Z,9.30
2023-04-26T10:57:56.170Z,8.95
2023-04-26T11:00:29.213Z,9.02
2023-04-26T11:03:03.426Z,9.10
2023-04-26T11:08:17.093Z,8.88
2023-04-26T11:10:50.720Z,9.04
2023-04-26T11:13:17.321Z,9.08
2023-04-26T11:15:43.642Z,9.21
2023-04-26T11:18:09.963Z,10.16
2023-04-26T11:20:36.272Z,10.84
2023-04-26T11:23:02.858Z,10.56
2023-04-26T11:25:29.842Z,9.84
2023-04-26T11:30:40.566Z,9.65
2023-04-26T11:33:06.900Z,9.74
2023-04-26T11:35:35.386Z,9.89
2023-04-26T11:38:04.586Z,9.94
2023-04-26T11:40:32.442Z,9.81
2023-04-26T11:45:26.251Z,10.06
2023-04-26T11:47:53.044Z,10.71
2023-04-26T11:50:20.127Z,10.96
2023-04-26T11:52:46.522Z,10.55
2023-04-26T11:55:12.857Z,10.51
2023-04-26T11:57:39.152Z,10.55
2023-04-26T12:00:14.866Z,10.53
2023-04-26T12:02:48.822Z,10.11
2023-04-26T12:05:29.226Z,10.41
2023-04-26T12:07:58.674Z,10.18
2023-04-26T12:10:34.158Z,10.13
2023-04-26T12:13:00.747Z,9.95
2023-04-26T12:15:34.189Z,10.50
2023-04-26T12:18:06.046Z,10.55
2023-04-26T12:20:35.720Z,11.36
2023-04-26T12:23:04.046Z,12.00
2023-04-26T12:27:57.352Z,12.23
2023-04-26T12:30:26.499Z,12.49
2023-04-26T12:32:52.868Z,12.14
2023-04-26T12:35:19.308Z,11.99
2023-04-26T12:37:45.659Z,11.92
2023-04-26T12:40:12.626Z,11.70
2023-04-26T12:42:39.184Z,11.30
2023-04-26T12:45:05.933Z,10.95
2023-04-26T12:47:35.209Z,11.24
2023-04-26T12:50:01.806Z,10.81
2023-04-26T12:52:28.146Z,10.67
2023-04-26T12:54:54.516Z,10.38
2023-04-26T12:57:20.918Z,10.31
2023-04-26T12:59:47.504Z,10.45
2023-04-26T13:02:13.939Z,11.25
2023-04-26T13:04:41.702Z,11.18
2023-04-26T13:07:08.660Z,11.21
2023-04-26T13:09:34.985Z,11.52
2023-04-26T13:12:01.284Z,12.10
2023-04-26T13:14:27.553Z,11.29
2023-04-26T13:16:53.966Z,11.76
2023-04-26T13:19:20.379Z,11.53
2023-04-26T13:21:46.659Z,11.61
2023-04-26T13:24:12.961Z,11.25
2023-04-26T13:26:39.293Z,11.25
2023-04-26T13:29:05.605Z,11.26
2023-04-26T13:31:31.965Z,11.32
2023-04-26T13:33:58.312Z,11.46
2023-04-26T13:36:24.658Z,11.38
2023-04-26T13:38:51.108Z,11.26
2023-04-26T13:41:17.500Z,11.21
2023-04-26T13:43:43.833Z,11.50
2023-04-26T13:46:10.139Z,11.66
2023-04-26T13:48:36.460Z,11.46
2023-04-26T13:51:04.056Z,11.71
2023-04-26T13:53:33.264Z,11.46
2023-04-26T13:55:59.558Z,11.12
2023-04-26T13:58:25.852Z,10.71
2023-04-26T14:00:52.145Z,10.59
2023-04-26T14:03:18.690Z,10.24
2023-04-26T14:05:45.141Z,9.98
2023-04-26T14:08:11.429Z,10.11
2023-04-26T14:10:37.766Z,10.08
2023-04-26T14:13:04.050Z,10.12
2023-04-26T14:15:30.364Z,9.97
2023-04-26T14:17:56.708Z,10.20
2023-04-26T14:20:23.034Z,10.32
2023-04-26T14:22:49.370Z,10.58
2023-04-26T14:25:15.782Z,10.59
2023-04-26T14:27:42.103Z,10.62
2023-04-26T14:30:08.693Z,10.38
2023-04-26T14:32:35.140Z,10.28
2023-04-26T14:37:26.614Z,10.25
2023-04-26T14:39:52.909Z,10.13
2023-04-26T14:42:19.230Z,10.35
2023-04-26T14:44:45.533Z,10.58
2023-04-26T14:47:11.883Z,10.48
2023-04-26T14:49:38.175Z,10.57
2023-04-26T14:52:04.700Z,10.74
2023-04-26T14:57:09.048Z,10.54
2023-04-26T14:59:35.597Z,10.17
2023-04-26T15:02:02.401Z,10.39
2023-04-26T15:04:29.141Z,10.77
2023-04-26T15:06:55.694Z,10.68
2023-04-26T15:09:22.051Z,10.61
2023-04-26T15:11:48.340Z,10.51
2023-04-26T15:14:14.615Z,10.48
2023-04-26T15:16:40.944Z,10.31
2023-04-26T15:19:07.309Z,10.30
2023-04-26T15:21:33.628Z,10.24
2023-04-26T15:23:59.936Z,10.07
2023-04-26T15:26:26.254Z,9.92
2023-04-26T15:28:52.572Z,9.85
2023-04-26T15:31:20.472Z,9.72
2023-04-26T15:33:46.825Z,9.84
2023-04-26T15:36:13.147Z,9.74
2023-04-26T15:38:39.530Z,9.75
2023-04-26T15:41:05.833Z,9.61
2023-04-26T15:43:32.133Z,9.60
2023-04-26T15:45:58.533Z,9.52
2023-04-26T15:48:24.989Z,9.52
2023-04-26T15:50:51.551Z,9.52
2023-04-26T15:53:18.096Z,9.51
2023-04-26T15:55:44.492Z,9.51
2023-04-26T15:58:10.790Z,9.44
2023-04-26T16:00:37.137Z,9.51
2023-04-26T16:03:03.655Z,9.51
2023-04-26T16:05:30.119Z,9.46
2023-04-26T16:07:56.446Z,9.39
2023-04-26T16:10:22.872Z,9.34
2023-04-26T16:12:49.242Z,9.39
2023-04-26T16:15:15.702Z,9.31
2023-04-26T16:17:42.104Z,9.27
2023-04-26T16:20:09.397Z,9.28
2023-04-26T16:22:35.932Z,9.36
2023-04-26T16:25:05.590Z,9.27
2023-04-26T16:27:32.295Z,9.23
2023-04-26T16:29:58.621Z,9.19
2023-04-26T16:32:25.017Z,9.20
2023-04-26T16:34:51.628Z,9.14
2023-04-26T16:37:17.995Z,9.17
2023-04-26T16:39:45.014Z,9.07
2023-04-26T16:42:11.441Z,9.04
2023-04-26T16:44:37.824Z,9.03
2023-04-26T16:47:04.516Z,9.09
2023-04-26T16:51:57.041Z,8.95
2023-04-26T16:54:23.397Z,8.88
2023-04-26T16:56:49.765Z,8.83
2023-04-26T16:59:16.083Z,8.86
2023-04-26T17:01:42.531Z,8.84
2023-04-26T17:04:10.289Z,8.81
2023-04-26T17:06:38.783Z,8.84
2023-04-26T17:09:05.116Z,8.89
2023-04-26T17:13:56.768Z,8.87
2023-04-26T17:16:23.123Z,8.85
2023-04-26T17:18:49.479Z,8.91
2023-04-26T17:21:15.806Z,9.02
2023-04-26T17:23:42.213Z,9.02
2023-04-26T17:26:08.539Z,9.05
2023-04-26T17:28:37.496Z,9.07
2023-04-26T17:31:04.002Z,9.03
2023-04-26T17:33:30.324Z,9.09
2023-04-26T17:35:56.680Z,9.11
2023-04-26T17:38:23.020Z,9.14
2023-04-26T17:40:53.332Z,9.04
2023-04-26T17:43:19.903Z,9.03
2023-04-26T17:45:46.552Z,9.09
2023-04-26T17:48:13.139Z,9.10
2023-04-26T17:50:39.760Z,9.04
2023-04-26T17:53:06.271Z,8.96
2023-04-26T17:55:36.019Z,8.88
2023-04-26T17:58:02.354Z,8.81
2023-04-26T18:00:28.723Z,8.70
2023-04-26T18:02:55.143Z,8.61
2023-04-26T18:05:21.712Z,8.60
2023-04-26T18:07:48.016Z,8.54
2023-04-26T18:10:14.349Z,8.49
2023-04-26T18:12:42.628Z,8.45
2023-04-26T18:15:09.022Z,8.38
2023-04-26T18:17:35.431Z,8.39
2023-04-26T18:20:02.165Z,8.43
2023-04-26T18:22:28.444Z,8.20
2023-04-26T18:24:54.775Z,8.16
2023-04-26T18:27:21.090Z,8.16
2023-04-26T18:29:47.389Z,8.04
2023-04-26T18:32:13.796Z,7.99
2023-04-26T18:34:40.239Z,7.93
2023-04-26T18:37:07.131Z,7.91
2023-04-26T18:42:00.619Z,7.84
2023-04-26T18:44:26.905Z,7.85
2023-04-26T18:46:53.283Z,7.80
2023-04-26T18:49:19.641Z,7.73
2023-04-26T18:51:45.942Z,7.64
2023-04-26T18:54:12.257Z,7.60
2023-04-26T18:56:38.588Z,7.65
2023-04-26T18:59:04.922Z,7.61
2023-04-26T19:04:10.927Z,7.50
2023-04-26T19:06:40.283Z,7.52
2023-04-26T19:09:06.628Z,7.49
2023-04-26T19:11:32.973Z,7.47
2023-04-26T19:13:59.312Z,7.47
2023-04-26T19:16:25.617Z,7.42
2023-04-26T19:18:52.012Z,7.41
2023-04-26T19:21:18.325Z,7.38
2023-04-26T19:23:46.601Z,7.39
2023-04-26T19:26:13.104Z,7.28
2023-04-26T19:28:39.601Z,7.25
2023-04-26T19:31:06.310Z,7.22
2023-04-26T19:33:35.828Z,7.18
2023-04-26T19:36:02.275Z,7.14
2023-04-26T19:38:28.628Z,7.02
2023-04-26T19:40:54.962Z,6.97
2023-04-26T19:43:21.388Z,7.08
2023-04-26T19:45:48.080Z,6.93
2023-04-26T19:48:14.631Z,6.90
2023-04-26T19:50:45.202Z,6.86
2023-04-26T19:53:13.483Z,6.81
2023-04-26T19:55:41.206Z,6.75
2023-04-26T19:58:08.675Z,6.75
2023-04-26T20:00:35.168Z,6.78
2023-04-26T20:03:02.222Z,6.71
2023-04-26T20:05:28.874Z,6.67
2023-04-26T20:07:55.980Z,6.67
2023-04-26T20:10:22.274Z,6.58
2023-04-26T20:12:48.909Z,6.49
2023-04-26T20:15:15.496Z,6.41
2023-04-26T20:17:42.594Z,6.38
2023-04-26T20:20:10.902Z,6.31
2023-04-26T20:22:37.511Z,6.24
2023-04-26T20:25:04.548Z,6.25
2023-04-26T20:27:30.868Z,6.16
2023-04-26T20:29:57.226Z,6.21
2023-04-26T20:32:23.623Z,6.19
2023-04-26T20:34:50.014Z,6.16
2023-04-26T20:37:16.343Z,6.15
2023-04-26T20:39:42.602Z,6.12
2023-04-26T20:42:08.960Z,6.10
2023-04-26T20:44:35.349Z,6.11
2023-04-26T20:47:01.654Z,6.13
2023-04-26T20:49:27.960Z,6.08
2023-04-26T20:51:54.298Z,6.05
2023-04-26T20:54:20.689Z,6.01
2023-04-26T20:56:46.986Z,6.00
2023-04-26T20:59:13.299Z,5.99
2023-04-26T21:01:39.655Z,5.97
2023-04-26T21:04:06.208Z,5.98
2023-04-26T21:06:32.594Z,5.98
2023-04-26T21:08:59.064Z,5.94
2023-04-26T21:11:25.348Z,5.95
2023-04-26T21:13:51.660Z,5.91
2023-04-26T21:16:17.958Z,5.85
2023-04-26T21:18:44.272Z,5.80
2023-04-26T21:21:10.567Z,5.78
2023-04-26T21:23:36.885Z,5.76
2023-04-26T21:26:03.266Z,5.67
2023-04-26T21:28:29.570Z,5.65
2023-04-26T21:31:06.836Z,5.63
2023-04-26T21:33:34.211Z,5.61
2023-04-26T21:36:00.777Z,5.59
2023-04-26T21:38:27.164Z,5.60
2023-04-26T21:40:53.512Z,5.56
2023-04-26T21:43:19.973Z,5.55
2023-04-26T21:45:46.278Z,5.55
2023-04-26T21:48:12.717Z,5.55
2023-04-26T21:50:39.077Z,5.50
2023-04-26T21:53:05.401Z,5.50
2023-04-26T21:55:31.739Z,5.44
2023-04-26T21:57:58.027Z,5.43
2023-04-26T22:00:24.421Z,5.34
2023-04-26T22:02:50.850Z,5.32
2023-04-26T22:05:17.293Z,5.28
2023-04-26T22:07:43.620Z,5.25
2023-04-26T22:10:10.350Z,5.22
2023-04-26T22:12:36.687Z,5.15
2023-04-26T22:15:03.088Z,5.15
2023-04-26T22:17:29.429Z,5.09
2023-04-26T22:19:55.761Z,5.10
2023-04-26T22:22:22.080Z,5.09
2023-04-26T22:24:48.406Z,5.08
2023-04-26T22:27:14.715Z,5.07
2023-04-26T22:29:40.986Z,5.07
2023-04-26T22:32:07.339Z,5.11
2023-04-26T22:34:33.727Z,5.07
2023-04-26T22:37:13.082Z,5.07
2023-04-26T22:39:46.308Z,5.08
2023-04-26T22:42:12.621Z,5.09
2023-04-26T22:44:38.900Z,5.15
2023-04-26T22:47:05.252Z,5.12
2023-04-26T22:49:31.555Z,5.10
2023-04-26T22:52:07.889Z,5.15
2023-04-26T22:54:38.238Z,5.18
2023-04-26T22:57:04.698Z,5.22
2023-04-26T22:59:31.009Z,5.36
2023-04-26T23:01:57.290Z,5.33
2023-04-26T23:04:23.626Z,5.58
2023-04-26T23:06:49.944Z,5.56
2023-04-26T23:09:16.261Z,5.64
2023-04-26T23:11:42.584Z,5.63
2023-04-26T23:14:09.065Z,5.80
2023-04-26T23:16:35.875Z,5.83
2023-04-26T23:19:02.238Z,5.87
2023-04-26T23:21:28.526Z,5.93
2023-04-26T23:23:54.863Z,5.94
2023-04-26T23:26:21.164Z,5.91
2023-04-26T23:28:47.447Z,5.93
2023-04-26T23:31:13.767Z,5.95
2023-04-26T23:33:40.070Z,6.06
2023-04-26T23:36:06.923Z,6.08
2023-04-26T23:38:33.314Z,6.13
2023-04-26T23:40:59.605Z,6.11
2023-04-26T23:43:25.932Z,6.08
2023-04-26T23:45:52.381Z,6.12
2023-04-26T23:48:18.754Z,6.14
2023-04-26T23:50:45.091Z,6.12
2023-04-26T23:53:11.409Z,6.10
2023-04-26T23:55:38.470Z,6.07
2023-04-26T23:58:04.825Z,6.03
